Yellville, Arkansas
Current Conditions -  °F | °C
As of 7:55 PM on Monday 20 Oct 2014 (Local Time) from KFLP Reporting Station
Clear Clear  
Wind Chill: 63°   Ceiling: Unl
Heat Index: 63°   Visibility: 10mi
Dew Point: 55°   Wind: 3mph
Humidity: 77%   Direction: 250°WSW
Pressure: 30.03"   Gusts: NA
Location:  36.23°N, 92.68°W
Report Text: KFLP 210055Z AUTO 25003KT 10SM CLR 17/13 A3003 RMK AO1
Loading
Personal Weather Stations






























Interactive Weather Map
Tropical Storm Tracking
New forecast layout! Learn more

10-Day Weather Forecast

Advertisements
Track Severe Weather on mobile